sensor_id;sensor_type;location;lat;lon;timestamp;P1;durP1;ratioP1;P2;durP2;ratioP2
14526;SDS011;7350;51.208;4.238;2023-01-29T00:00:31;9.85;;;9.05;;
14526;SDS011;7350;51.208;4.238;2023-01-29T00:02:58;11.07;;;10.18;;
14526;SDS011;7350;51.208;4.238;2023-01-29T00:05:27;10.73;;;9.82;;
14526;SDS011;7350;51.208;4.238;2023-01-29T00:07:54;10.40;;;9.50;;
14526;SDS011;7350;51.208;4.238;2023-01-29T00:10:21;11.15;;;9.98;;
14526;SDS011;7350;51.208;4.238;2023-01-29T00:12:49;10.65;;;9.68;;
14526;SDS011;7350;51.208;4.238;2023-01-29T00:15:17;10.13;;;9.27;;
14526;SDS011;7350;51.208;4.238;2023-01-29T00:17:44;10.82;;;9.82;;
14526;SDS011;7350;51.208;4.238;2023-01-29T00:20:11;10.73;;;9.82;;
14526;SDS011;7350;51.208;4.238;2023-01-29T00:22:40;10.95;;;9.95;;
14526;SDS011;7350;51.208;4.238;2023-01-29T00:25:08;10.80;;;9.85;;
14526;SDS011;7350;51.208;4.238;2023-01-29T00:27:35;10.88;;;9.88;;
14526;SDS011;7350;51.208;4.238;2023-01-29T00:30:02;10.65;;;9.75;;
14526;SDS011;7350;51.208;4.238;2023-01-29T00:32:37;11.38;;;10.38;;
14526;SDS011;7350;51.208;4.238;2023-01-29T00:35:04;10.45;;;9.65;;
14526;SDS011;7350;51.208;4.238;2023-01-29T00:37:33;11.05;;;10.05;;
14526;SDS011;7350;51.208;4.238;2023-01-29T00:40:01;11.02;;;10.13;;
14526;SDS011;7350;51.208;4.238;2023-01-29T00:42:29;10.68;;;9.68;;
14526;SDS011;7350;51.208;4.238;2023-01-29T00:45:16;11.27;;;10.27;;
14526;SDS011;7350;51.208;4.238;2023-01-29T00:47:42;10.32;;;9.43;;
14526;SDS011;7350;51.208;4.238;2023-01-29T00:50:10;10.32;;;9.43;;
14526;SDS011;7350;51.208;4.238;2023-01-29T00:52:38;10.88;;;9.98;;
14526;SDS011;7350;51.208;4.238;2023-01-29T00:55:07;11.40;;;10.40;;
14526;SDS011;7350;51.208;4.238;2023-01-29T00:57:36;11.02;;;10.13;;
14526;SDS011;7350;51.208;4.238;2023-01-29T01:00:04;10.00;;;9.10;;
14526;SDS011;7350;51.208;4.238;2023-01-29T01:02:33;10.93;;;9.88;;
14526;SDS011;7350;51.208;4.238;2023-01-29T01:05:29;11.02;;;10.10;;
14526;SDS011;7350;51.208;4.238;2023-01-29T01:07:56;10.82;;;9.90;;
14526;SDS011;7350;51.208;4.238;2023-01-29T01:10:26;10.75;;;9.85;;
14526;SDS011;7350;51.208;4.238;2023-01-29T01:12:54;11.60;;;10.45;;
14526;SDS011;7350;51.208;4.238;2023-01-29T01:15:23;11.25;;;10.25;;
14526;SDS011;7350;51.208;4.238;2023-01-29T01:17:52;10.65;;;9.75;;
14526;SDS011;7350;51.208;4.238;2023-01-29T01:20:19;11.63;;;10.65;;
14526;SDS011;7350;51.208;4.238;2023-01-29T01:22:46;11.38;;;10.30;;
14526;SDS011;7350;51.208;4.238;2023-01-29T01:25:13;11.07;;;10.18;;
14526;SDS011;7350;51.208;4.238;2023-01-29T01:27:43;10.55;;;9.65;;
14526;SDS011;7350;51.208;4.238;2023-01-29T01:30:10;10.27;;;9.38;;
14526;SDS011;7350;51.208;4.238;2023-01-29T01:32:39;11.18;;;10.18;;
14526;SDS011;7350;51.208;4.238;2023-01-29T01:35:08;10.50;;;9.55;;
14526;SDS011;7350;51.208;4.238;2023-01-29T01:37:35;11.10;;;10.10;;
14526;SDS011;7350;51.208;4.238;2023-01-29T01:40:03;10.57;;;9.68;;
14526;SDS011;7350;51.208;4.238;2023-01-29T01:42:36;10.85;;;9.95;;
14526;SDS011;7350;51.208;4.238;2023-01-29T01:45:06;11.30;;;10.20;;
14526;SDS011;7350;51.208;4.238;2023-01-29T01:47:50;10.70;;;9.80;;
14526;SDS011;7350;51.208;4.238;2023-01-29T01:50:20;10.93;;;9.93;;
14526;SDS011;7350;51.208;4.238;2023-01-29T01:52:51;11.32;;;10.32;;
14526;SDS011;7350;51.208;4.238;2023-01-29T01:55:22;10.02;;;9.13;;
14526;SDS011;7350;51.208;4.238;2023-01-29T01:57:54;10.70;;;9.70;;
14526;SDS011;7350;51.208;4.238;2023-01-29T02:00:27;11.25;;;10.23;;
14526;SDS011;7350;51.208;4.238;2023-01-29T02:02:54;11.15;;;10.25;;
14526;SDS011;7350;51.208;4.238;2023-01-29T02:05:38;11.07;;;10.18;;
14526;SDS011;7350;51.208;4.238;2023-01-29T02:08:25;10.32;;;9.50;;
14526;SDS011;7350;51.208;4.238;2023-01-29T02:11:13;10.25;;;9.25;;
14526;SDS011;7350;51.208;4.238;2023-01-29T02:13:40;10.70;;;9.80;;
14526;SDS011;7350;51.208;4.238;2023-01-29T02:16:09;11.07;;;10.15;;
14526;SDS011;7350;51.208;4.238;2023-01-29T02:18:36;11.00;;;10.10;;
14526;SDS011;7350;51.208;4.238;2023-01-29T02:21:10;11.25;;;10.30;;
14526;SDS011;7350;51.208;4.238;2023-01-29T02:29:35;10.60;;;9.63;;
14526;SDS011;7350;51.208;4.238;2023-01-29T02:32:18;10.65;;;9.75;;
14526;SDS011;7350;51.208;4.238;2023-01-29T02:34:53;11.57;;;10.55;;
14526;SDS011;7350;51.208;4.238;2023-01-29T02:37:53;10.48;;;9.57;;
14526;SDS011;7350;51.208;4.238;2023-01-29T02:40:28;10.60;;;9.70;;
14526;SDS011;7350;51.208;4.238;2023-01-29T02:43:03;11.38;;;10.27;;
14526;SDS011;7350;51.208;4.238;2023-01-29T02:45:37;11.27;;;10.27;;
14526;SDS011;7350;51.208;4.238;2023-01-29T02:48:13;10.68;;;9.77;;
14526;SDS011;7350;51.208;4.238;2023-01-29T02:50:46;10.68;;;9.77;;
14526;SDS011;7350;51.208;4.238;2023-01-29T02:53:19;11.07;;;10.13;;
14526;SDS011;7350;51.208;4.238;2023-01-29T02:55:51;10.43;;;9.52;;
14526;SDS011;7350;51.208;4.238;2023-01-29T02:58:24;10.68;;;9.80;;
14526;SDS011;7350;51.208;4.238;2023-01-29T03:00:58;11.07;;;10.18;;
14526;SDS011;7350;51.208;4.238;2023-01-29T03:03:30;10.95;;;10.05;;
14526;SDS011;7350;51.208;4.238;2023-01-29T03:06:01;10.20;;;9.30;;
14526;SDS011;7350;51.208;4.238;2023-01-29T03:08:33;10.60;;;9.60;;
14526;SDS011;7350;51.208;4.238;2023-01-29T03:11:08;10.60;;;9.68;;
14526;SDS011;7350;51.208;4.238;2023-01-29T03:13:40;10.15;;;9.25;;
14526;SDS011;7350;51.208;4.238;2023-01-29T03:16:14;10.90;;;9.95;;
14526;SDS011;7350;51.208;4.238;2023-01-29T03:18:47;10.10;;;9.27;;
14526;SDS011;7350;51.208;4.238;2023-01-29T03:21:20;9.75;;;8.95;;
14526;SDS011;7350;51.208;4.238;2023-01-29T03:24:09;10.40;;;9.45;;
14526;SDS011;7350;51.208;4.238;2023-01-29T03:26:57;10.13;;;9.23;;
14526;SDS011;7350;51.208;4.238;2023-01-29T03:29:44;10.80;;;9.90;;
14526;SDS011;7350;51.208;4.238;2023-01-29T03:32:33;9.32;;;8.52;;
14526;SDS011;7350;51.208;4.238;2023-01-29T03:35:05;9.95;;;9.05;;
14526;SDS011;7350;51.208;4.238;2023-01-29T03:37:36;10.38;;;9.48;;
14526;SDS011;7350;51.208;4.238;2023-01-29T03:40:07;10.60;;;9.70;;
14526;SDS011;7350;51.208;4.238;2023-01-29T03:42:38;9.95;;;9.15;;
14526;SDS011;7350;51.208;4.238;2023-01-29T03:45:25;10.13;;;9.23;;
14526;SDS011;7350;51.208;4.238;2023-01-29T03:47:59;9.90;;;9.05;;
14526;SDS011;7350;51.208;4.238;2023-01-29T03:50:36;10.02;;;9.18;;
14526;SDS011;7350;51.208;4.238;2023-01-29T03:53:15;10.63;;;9.68;;
14526;SDS011;7350;51.208;4.238;2023-01-29T03:55:49;9.85;;;9.05;;
14526;SDS011;7350;51.208;4.238;2023-01-29T03:58:22;9.50;;;8.70;;
14526;SDS011;7350;51.208;4.238;2023-01-29T04:00:55;10.27;;;9.48;;
14526;SDS011;7350;51.208;4.238;2023-01-29T04:03:28;10.55;;;9.65;;
14526;SDS011;7350;51.208;4.238;2023-01-29T04:06:02;10.73;;;9.73;;
14526;SDS011;7350;51.208;4.238;2023-01-29T04:08:35;9.95;;;9.05;;
14526;SDS011;7350;51.208;4.238;2023-01-29T04:11:10;9.68;;;8.88;;
14526;SDS011;7350;51.208;4.238;2023-01-29T04:13:40;10.40;;;9.57;;
14526;SDS011;7350;51.208;4.238;2023-01-29T04:16:09;10.07;;;9.18;;
14526;SDS011;7350;51.208;4.238;2023-01-29T04:18:44;9.65;;;8.75;;
14526;SDS011;7350;51.208;4.238;2023-01-29T04:21:12;9.52;;;8.73;;
14526;SDS011;7350;51.208;4.238;2023-01-29T04:23:39;9.77;;;8.98;;
14526;SDS011;7350;51.208;4.238;2023-01-29T04:26:18;11.13;;;10.13;;
14526;SDS011;7350;51.208;4.238;2023-01-29T04:29:07;10.68;;;9.60;;
14526;SDS011;7350;51.208;4.238;2023-01-29T04:31:50;10.57;;;9.68;;
14526;SDS011;7350;51.208;4.238;2023-01-29T04:34:26;10.45;;;9.65;;
14526;SDS011;7350;51.208;4.238;2023-01-29T04:36:58;10.35;;;9.45;;
14526;SDS011;7350;51.208;4.238;2023-01-29T04:39:38;10.95;;;9.85;;
14526;SDS011;7350;51.208;4.238;2023-01-29T04:42:13;11.20;;;10.30;;
14526;SDS011;7350;51.208;4.238;2023-01-29T04:44:46;10.18;;;9.27;;
14526;SDS011;7350;51.208;4.238;2023-01-29T04:47:22;10.63;;;9.73;;
14526;SDS011;7350;51.208;4.238;2023-01-29T04:50:01;10.55;;;9.65;;
14526;SDS011;7350;51.208;4.238;2023-01-29T04:52:37;10.18;;;9.38;;
14526;SDS011;7350;51.208;4.238;2023-01-29T04:55:12;10.30;;;9.43;;
14526;SDS011;7350;51.208;4.238;2023-01-29T04:57:46;11.13;;;10.13;;
14526;SDS011;7350;51.208;4.238;2023-01-29T05:00:19;10.50;;;9.60;;
14526;SDS011;7350;51.208;4.238;2023-01-29T05:02:51;10.63;;;9.73;;
14526;SDS011;7350;51.208;4.238;2023-01-29T05:05:20;11.27;;;10.35;;
14526;SDS011;7350;51.208;4.238;2023-01-29T05:07:47;11.50;;;10.50;;
14526;SDS011;7350;51.208;4.238;2023-01-29T05:10:17;10.90;;;10.00;;
14526;SDS011;7350;51.208;4.238;2023-01-29T05:12:47;11.70;;;10.60;;
14526;SDS011;7350;51.208;4.238;2023-01-29T05:15:17;11.32;;;10.32;;
14526;SDS011;7350;51.208;4.238;2023-01-29T05:17:48;11.52;;;10.50;;
14526;SDS011;7350;51.208;4.238;2023-01-29T05:20:17;10.73;;;9.75;;
14526;SDS011;7350;51.208;4.238;2023-01-29T05:22:47;10.90;;;10.00;;
14526;SDS011;7350;51.208;4.238;2023-01-29T05:25:19;11.13;;;10.15;;
14526;SDS011;7350;51.208;4.238;2023-01-29T05:27:48;11.55;;;10.55;;
14526;SDS011;7350;51.208;4.238;2023-01-29T05:30:31;10.75;;;9.75;;
14526;SDS011;7350;51.208;4.238;2023-01-29T05:32:59;11.35;;;10.27;;
14526;SDS011;7350;51.208;4.238;2023-01-29T05:35:26;10.65;;;9.55;;
14526;SDS011;7350;51.208;4.238;2023-01-29T05:37:55;11.52;;;10.48;;
14526;SDS011;7350;51.208;4.238;2023-01-29T05:40:22;10.60;;;9.63;;
14526;SDS011;7350;51.208;4.238;2023-01-29T05:42:50;9.93;;;9.02;;
14526;SDS011;7350;51.208;4.238;2023-01-29T05:45:17;10.20;;;9.30;;
14526;SDS011;7350;51.208;4.238;2023-01-29T05:47:44;10.80;;;9.80;;
14526;SDS011;7350;51.208;4.238;2023-01-29T05:50:12;10.50;;;9.60;;
14526;SDS011;7350;51.208;4.238;2023-01-29T05:52:40;9.18;;;8.27;;
14526;SDS011;7350;51.208;4.238;2023-01-29T05:55:08;9.60;;;8.70;;
14526;SDS011;7350;51.208;4.238;2023-01-29T05:57:36;9.73;;;8.82;;
14526;SDS011;7350;51.208;4.238;2023-01-29T06:00:05;9.13;;;8.32;;
14526;SDS011;7350;51.208;4.238;2023-01-29T06:02:34;9.15;;;8.35;;
14526;SDS011;7350;51.208;4.238;2023-01-29T06:05:01;9.07;;;8.27;;
14526;SDS011;7350;51.208;4.238;2023-01-29T06:07:28;9.95;;;8.95;;
14526;SDS011;7350;51.208;4.238;2023-01-29T06:09:56;8.57;;;7.78;;
14526;SDS011;7350;51.208;4.238;2023-01-29T06:12:25;8.98;;;8.18;;
14526;SDS011;7350;51.208;4.238;2023-01-29T06:14:52;8.98;;;8.07;;
14526;SDS011;7350;51.208;4.238;2023-01-29T06:17:19;9.07;;;8.27;;
14526;SDS011;7350;51.208;4.238;2023-01-29T06:19:46;8.30;;;7.57;;
14526;SDS011;7350;51.208;4.238;2023-01-29T06:22:13;8.80;;;7.90;;
14526;SDS011;7350;51.208;4.238;2023-01-29T06:24:40;9.63;;;7.13;;
14526;SDS011;7350;51.208;4.238;2023-01-29T06:27:06;8.45;;;7.63;;
14526;SDS011;7350;51.208;4.238;2023-01-29T06:29:35;9.48;;;7.90;;
14526;SDS011;7350;51.208;4.238;2023-01-29T06:32:02;9.35;;;8.43;;
14526;SDS011;7350;51.208;4.238;2023-01-29T06:34:29;8.07;;;7.38;;
14526;SDS011;7350;51.208;4.238;2023-01-29T06:36:56;10.80;;;8.35;;
14526;SDS011;7350;51.208;4.238;2023-01-29T06:39:23;9.50;;;8.50;;
14526;SDS011;7350;51.208;4.238;2023-01-29T06:41:50;9.20;;;8.27;;
14526;SDS011;7350;51.208;4.238;2023-01-29T06:44:17;11.30;;;8.60;;
14526;SDS011;7350;51.208;4.238;2023-01-29T06:46:45;9.68;;;8.13;;
14526;SDS011;7350;51.208;4.238;2023-01-29T06:49:12;8.85;;;8.05;;
14526;SDS011;7350;51.208;4.238;2023-01-29T06:51:39;8.98;;;8.07;;
14526;SDS011;7350;51.208;4.238;2023-01-29T06:54:07;8.82;;;8.02;;
14526;SDS011;7350;51.208;4.238;2023-01-29T06:56:35;8.77;;;7.95;;
14526;SDS011;7350;51.208;4.238;2023-01-29T06:59:02;9.82;;;8.20;;
14526;SDS011;7350;51.208;4.238;2023-01-29T07:01:29;12.13;;;8.30;;
14526;SDS011;7350;51.208;4.238;2023-01-29T07:03:58;10.35;;;8.40;;
14526;SDS011;7350;51.208;4.238;2023-01-29T07:06:28;8.65;;;7.82;;
14526;SDS011;7350;51.208;4.238;2023-01-29T07:08:55;9.48;;;8.57;;
14526;SDS011;7350;51.208;4.238;2023-01-29T07:11:22;9.02;;;8.15;;
14526;SDS011;7350;51.208;4.238;2023-01-29T07:13:49;9.45;;;8.57;;
14526;SDS011;7350;51.208;4.238;2023-01-29T07:16:16;8.85;;;8.05;;
14526;SDS011;7350;51.208;4.238;2023-01-29T07:18:44;8.60;;;7.90;;
14526;SDS011;7350;51.208;4.238;2023-01-29T07:21:12;9.07;;;8.18;;
14526;SDS011;7350;51.208;4.238;2023-01-29T07:23:39;8.70;;;7.90;;
14526;SDS011;7350;51.208;4.238;2023-01-29T07:26:06;8.93;;;8.02;;
14526;SDS011;7350;51.208;4.238;2023-01-29T07:28:34;8.68;;;7.88;;
14526;SDS011;7350;51.208;4.238;2023-01-29T07:31:03;9.73;;;8.82;;
14526;SDS011;7350;51.208;4.238;2023-01-29T07:33:30;9.18;;;8.38;;
14526;SDS011;7350;51.208;4.238;2023-01-29T07:35:58;8.55;;;7.85;;
14526;SDS011;7350;51.208;4.238;2023-01-29T07:38:26;9.00;;;8.18;;
14526;SDS011;7350;51.208;4.238;2023-01-29T07:40:53;8.55;;;7.75;;
14526;SDS011;7350;51.208;4.238;2023-01-29T07:43:20;14.38;;;8.25;;
14526;SDS011;7350;51.208;4.238;2023-01-29T07:45:48;9.05;;;8.30;;
14526;SDS011;7350;51.208;4.238;2023-01-29T07:48:16;8.32;;;7.63;;
14526;SDS011;7350;51.208;4.238;2023-01-29T07:50:43;8.80;;;7.90;;
14526;SDS011;7350;51.208;4.238;2023-01-29T07:53:11;8.38;;;7.65;;
14526;SDS011;7350;51.208;4.238;2023-01-29T07:55:41;8.77;;;7.90;;
14526;SDS011;7350;51.208;4.238;2023-01-29T07:58:10;9.38;;;7.82;;
14526;SDS011;7350;51.208;4.238;2023-01-29T08:00:37;8.68;;;7.80;;
14526;SDS011;7350;51.208;4.238;2023-01-29T08:03:05;8.50;;;7.70;;
14526;SDS011;7350;51.208;4.238;2023-01-29T08:05:34;7.85;;;7.10;;
14526;SDS011;7350;51.208;4.238;2023-01-29T08:08:03;9.13;;;7.72;;
14526;SDS011;7350;51.208;4.238;2023-01-29T08:10:30;9.57;;;7.80;;
14526;SDS011;7350;51.208;4.238;2023-01-29T08:12:59;8.48;;;7.68;;
14526;SDS011;7350;51.208;4.238;2023-01-29T08:15:27;8.60;;;7.82;;
14526;SDS011;7350;51.208;4.238;2023-01-29T08:17:54;10.07;;;7.55;;
14526;SDS011;7350;51.208;4.238;2023-01-29T08:20:22;8.25;;;7.47;;
14526;SDS011;7350;51.208;4.238;2023-01-29T08:22:49;9.10;;;7.80;;
14526;SDS011;7350;51.208;4.238;2023-01-29T08:25:24;8.38;;;7.57;;
14526;SDS011;7350;51.208;4.238;2023-01-29T08:27:51;9.35;;;7.10;;
14526;SDS011;7350;51.208;4.238;2023-01-29T08:30:21;7.65;;;6.95;;
14526;SDS011;7350;51.208;4.238;2023-01-29T08:32:48;8.70;;;6.75;;
14526;SDS011;7350;51.208;4.238;2023-01-29T08:35:15;8.93;;;6.70;;
14526;SDS011;7350;51.208;4.238;2023-01-29T08:37:42;8.32;;;7.05;;
14526;SDS011;7350;51.208;4.238;2023-01-29T08:40:09;8.32;;;7.53;;
14526;SDS011;7350;51.208;4.238;2023-01-29T08:42:37;8.75;;;6.97;;
14526;SDS011;7350;51.208;4.238;2023-01-29T08:45:06;8.10;;;7.30;;
14526;SDS011;7350;51.208;4.238;2023-01-29T08:47:35;8.27;;;7.38;;
14526;SDS011;7350;51.208;4.238;2023-01-29T08:50:02;7.22;;;6.53;;
14526;SDS011;7350;51.208;4.238;2023-01-29T08:52:30;8.90;;;7.03;;
14526;SDS011;7350;51.208;4.238;2023-01-29T08:54:57;9.38;;;7.22;;
14526;SDS011;7350;51.208;4.238;2023-01-29T08:57:24;7.38;;;6.22;;
14526;SDS011;7350;51.208;4.238;2023-01-29T08:59:50;7.00;;;6.40;;
14526;SDS011;7350;51.208;4.238;2023-01-29T09:02:17;6.70;;;6.03;;
14526;SDS011;7350;51.208;4.238;2023-01-29T09:04:46;6.78;;;6.15;;
14526;SDS011;7350;51.208;4.238;2023-01-29T09:07:13;6.78;;;6.18;;
14526;SDS011;7350;51.208;4.238;2023-01-29T09:09:40;6.68;;;6.15;;
14526;SDS011;7350;51.208;4.238;2023-01-29T09:12:07;7.75;;;7.05;;
14526;SDS011;7350;51.208;4.238;2023-01-29T09:14:34;7.45;;;6.68;;
14526;SDS011;7350;51.208;4.238;2023-01-29T09:17:01;7.75;;;6.90;;
14526;SDS011;7350;51.208;4.238;2023-01-29T09:19:28;8.77;;;6.75;;
14526;SDS011;7350;51.208;4.238;2023-01-29T09:21:57;7.43;;;6.78;;
14526;SDS011;7350;51.208;4.238;2023-01-29T09:24:24;7.72;;;6.97;;
14526;SDS011;7350;51.208;4.238;2023-01-29T09:26:51;8.25;;;6.82;;
14526;SDS011;7350;51.208;4.238;2023-01-29T09:29:18;8.48;;;7.18;;
14526;SDS011;7350;51.208;4.238;2023-01-29T09:31:45;7.45;;;6.63;;
14526;SDS011;7350;51.208;4.238;2023-01-29T09:34:12;7.45;;;6.75;;
14526;SDS011;7350;51.208;4.238;2023-01-29T09:36:40;7.88;;;7.18;;
14526;SDS011;7350;51.208;4.238;2023-01-29T09:39:10;7.50;;;6.80;;
14526;SDS011;7350;51.208;4.238;2023-01-29T09:41:41;9.88;;;7.25;;
14526;SDS011;7350;51.208;4.238;2023-01-29T09:44:18;9.43;;;7.30;;
14526;SDS011;7350;51.208;4.238;2023-01-29T09:46:50;7.43;;;6.72;;
14526;SDS011;7350;51.208;4.238;2023-01-29T09:49:20;8.65;;;7.47;;
14526;SDS011;7350;51.208;4.238;2023-01-29T09:51:51;8.30;;;7.50;;
14526;SDS011;7350;51.208;4.238;2023-01-29T09:54:24;7.78;;;6.97;;
14526;SDS011;7350;51.208;4.238;2023-01-29T09:56:56;8.18;;;7.47;;
14526;SDS011;7350;51.208;4.238;2023-01-29T09:59:24;8.18;;;7.45;;
14526;SDS011;7350;51.208;4.238;2023-01-29T10:01:58;8.95;;;7.35;;
14526;SDS011;7350;51.208;4.238;2023-01-29T10:07:41;8.43;;;7.63;;
14526;SDS011;7350;51.208;4.238;2023-01-29T10:10:33;8.38;;;7.57;;
14526;SDS011;7350;51.208;4.238;2023-01-29T10:13:14;8.93;;;7.43;;
14526;SDS011;7350;51.208;4.238;2023-01-29T10:18:55;9.20;;;7.97;;
14526;SDS011;7350;51.208;4.238;2023-01-29T10:21:45;7.20;;;6.50;;
14526;SDS011;7350;51.208;4.238;2023-01-29T10:24:25;7.38;;;6.68;;
14526;SDS011;7350;51.208;4.238;2023-01-29T10:27:04;8.27;;;7.47;;
14526;SDS011;7350;51.208;4.238;2023-01-29T10:29:40;8.27;;;7.47;;
14526;SDS011;7350;51.208;4.238;2023-01-29T10:32:13;8.10;;;7.40;;
14526;SDS011;7350;51.208;4.238;2023-01-29T10:34:47;7.82;;;6.82;;
14526;SDS011;7350;51.208;4.238;2023-01-29T10:37:18;7.95;;;7.15;;
14526;SDS011;7350;51.208;4.238;2023-01-29T10:39:48;8.32;;;7.63;;
14526;SDS011;7350;51.208;4.238;2023-01-29T10:42:25;8.40;;;7.60;;
14526;SDS011;7350;51.208;4.238;2023-01-29T10:45:11;8.18;;;7.47;;
14526;SDS011;7350;51.208;4.238;2023-01-29T10:50:59;8.52;;;7.65;;
14526;SDS011;7350;51.208;4.238;2023-01-29T10:53:42;8.35;;;7.65;;
14526;SDS011;7350;51.208;4.238;2023-01-29T10:56:24;8.60;;;7.85;;
14526;SDS011;7350;51.208;4.238;2023-01-29T10:59:06;8.48;;;7.68;;
14526;SDS011;7350;51.208;4.238;2023-01-29T11:01:39;8.77;;;7.32;;
14526;SDS011;7350;51.208;4.238;2023-01-29T11:04:08;9.00;;;7.90;;
14526;SDS011;7350;51.208;4.238;2023-01-29T11:06:39;8.93;;;8.10;;
14526;SDS011;7350;51.208;4.238;2023-01-29T11:09:07;8.57;;;7.78;;
14526;SDS011;7350;51.208;4.238;2023-01-29T11:11:45;9.38;;;8.48;;
14526;SDS011;7350;51.208;4.238;2023-01-29T11:14:18;9.32;;;8.45;;
14526;SDS011;7350;51.208;4.238;2023-01-29T11:16:49;10.65;;;9.13;;
14526;SDS011;7350;51.208;4.238;2023-01-29T11:19:17;9.88;;;8.45;;
14526;SDS011;7350;51.208;4.238;2023-01-29T11:21:50;9.55;;;8.55;;
14526;SDS011;7350;51.208;4.238;2023-01-29T11:24:18;10.30;;;9.30;;
14526;SDS011;7350;51.208;4.238;2023-01-29T11:26:45;10.27;;;9.05;;
14526;SDS011;7350;51.208;4.238;2023-01-29T11:32:05;9.85;;;8.95;;
14526;SDS011;7350;51.208;4.238;2023-01-29T11:34:45;9.20;;;8.35;;
14526;SDS011;7350;51.208;4.238;2023-01-29T11:37:22;9.57;;;8.75;;
14526;SDS011;7350;51.208;4.238;2023-01-29T11:39:56;9.45;;;8.48;;
14526;SDS011;7350;51.208;4.238;2023-01-29T11:42:23;9.07;;;8.20;;
14526;SDS011;7350;51.208;4.238;2023-01-29T11:44:56;9.15;;;8.20;;
14526;SDS011;7350;51.208;4.238;2023-01-29T11:47:25;9.25;;;8.30;;
14526;SDS011;7350;51.208;4.238;2023-01-29T11:49:54;9.10;;;8.30;;
14526;SDS011;7350;51.208;4.238;2023-01-29T11:52:22;9.38;;;8.48;;
14526;SDS011;7350;51.208;4.238;2023-01-29T11:54:51;9.77;;;8.57;;
14526;SDS011;7350;51.208;4.238;2023-01-29T11:57:24;8.80;;;7.95;;
14526;SDS011;7350;51.208;4.238;2023-01-29T11:59:54;9.27;;;8.38;;
14526;SDS011;7350;51.208;4.238;2023-01-29T12:02:26;9.00;;;7.70;;
14526;SDS011;7350;51.208;4.238;2023-01-29T12:04:59;9.30;;;8.40;;
14526;SDS011;7350;51.208;4.238;2023-01-29T12:07:29;8.52;;;7.72;;
14526;SDS011;7350;51.208;4.238;2023-01-29T12:09:58;8.77;;;7.97;;
14526;SDS011;7350;51.208;4.238;2023-01-29T12:12:34;9.88;;;8.90;;
14526;SDS011;7350;51.208;4.238;2023-01-29T12:15:13;10.15;;;8.52;;
14526;SDS011;7350;51.208;4.238;2023-01-29T12:17:44;10.18;;;9.18;;
14526;SDS011;7350;51.208;4.238;2023-01-29T12:20:27;9.18;;;8.27;;
14526;SDS011;7350;51.208;4.238;2023-01-29T12:23:10;10.10;;;9.10;;
14526;SDS011;7350;51.208;4.238;2023-01-29T12:25:49;9.57;;;8.63;;
14526;SDS011;7350;51.208;4.238;2023-01-29T12:28:30;8.70;;;7.85;;
14526;SDS011;7350;51.208;4.238;2023-01-29T12:31:14;9.52;;;8.60;;
14526;SDS011;7350;51.208;4.238;2023-01-29T12:33:50;9.82;;;8.85;;
14526;SDS011;7350;51.208;4.238;2023-01-29T12:36:22;9.70;;;8.07;;
14526;SDS011;7350;51.208;4.238;2023-01-29T12:38:54;11.27;;;9.40;;
14526;SDS011;7350;51.208;4.238;2023-01-29T12:41:29;10.15;;;9.10;;
14526;SDS011;7350;51.208;4.238;2023-01-29T12:44:04;10.68;;;9.40;;
14526;SDS011;7350;51.208;4.238;2023-01-29T12:46:38;9.00;;;8.20;;
14526;SDS011;7350;51.208;4.238;2023-01-29T12:49:10;9.77;;;8.88;;
14526;SDS011;7350;51.208;4.238;2023-01-29T12:51:43;10.15;;;9.15;;
14526;SDS011;7350;51.208;4.238;2023-01-29T12:54:18;10.75;;;9.73;;
14526;SDS011;7350;51.208;4.238;2023-01-29T12:56:52;10.30;;;9.20;;
14526;SDS011;7350;51.208;4.238;2023-01-29T12:59:24;9.55;;;8.75;;
14526;SDS011;7350;51.208;4.238;2023-01-29T13:01:55;10.35;;;9.00;;
14526;SDS011;7350;51.208;4.238;2023-01-29T13:04:29;10.70;;;9.65;;
14526;SDS011;7350;51.208;4.238;2023-01-29T13:07:03;10.50;;;9.23;;
14526;SDS011;7350;51.208;4.238;2023-01-29T13:09:35;10.15;;;8.98;;
14526;SDS011;7350;51.208;4.238;2023-01-29T13:12:10;10.35;;;9.35;;
14526;SDS011;7350;51.208;4.238;2023-01-29T13:14:41;11.07;;;9.20;;
14526;SDS011;7350;51.208;4.238;2023-01-29T13:17:14;10.30;;;9.23;;
14526;SDS011;7350;51.208;4.238;2023-01-29T13:19:47;10.00;;;9.10;;
14526;SDS011;7350;51.208;4.238;2023-01-29T13:22:21;9.68;;;8.70;;
14526;SDS011;7350;51.208;4.238;2023-01-29T13:24:51;9.75;;;8.75;;
14526;SDS011;7350;51.208;4.238;2023-01-29T13:27:20;9.25;;;8.35;;
14526;SDS011;7350;51.208;4.238;2023-01-29T13:29:50;8.98;;;8.18;;
14526;SDS011;7350;51.208;4.238;2023-01-29T13:32:23;9.77;;;8.88;;
14526;SDS011;7350;51.208;4.238;2023-01-29T13:34:52;9.40;;;8.40;;
14526;SDS011;7350;51.208;4.238;2023-01-29T13:37:23;9.30;;;8.38;;
14526;SDS011;7350;51.208;4.238;2023-01-29T13:39:55;9.57;;;8.77;;
14526;SDS011;7350;51.208;4.238;2023-01-29T13:42:24;9.88;;;8.88;;
14526;SDS011;7350;51.208;4.238;2023-01-29T13:45:04;8.75;;;7.97;;
14526;SDS011;7350;51.208;4.238;2023-01-29T13:47:35;9.50;;;8.60;;
14526;SDS011;7350;51.208;4.238;2023-01-29T13:50:04;9.63;;;8.75;;
14526;SDS011;7350;51.208;4.238;2023-01-29T13:52:34;9.45;;;8.55;;
14526;SDS011;7350;51.208;4.238;2023-01-29T13:55:05;9.02;;;8.23;;
14526;SDS011;7350;51.208;4.238;2023-01-29T13:57:47;9.25;;;8.35;;
14526;SDS011;7350;51.208;4.238;2023-01-29T14:15:29;9.50;;;8.70;;
14526;SDS011;7350;51.208;4.238;2023-01-29T14:17:58;9.63;;;8.73;;
14526;SDS011;7350;51.208;4.238;2023-01-29T14:20:50;9.63;;;8.73;;
14526;SDS011;7350;51.208;4.238;2023-01-29T14:23:31;9.27;;;8.20;;
14526;SDS011;7350;51.208;4.238;2023-01-29T14:26:17;10.45;;;9.30;;
14526;SDS011;7350;51.208;4.238;2023-01-29T14:28:52;10.00;;;9.07;;
14526;SDS011;7350;51.208;4.238;2023-01-29T14:31:29;10.05;;;9.00;;
14526;SDS011;7350;51.208;4.238;2023-01-29T14:34:12;9.32;;;8.43;;
14526;SDS011;7350;51.208;4.238;2023-01-29T14:36:45;8.68;;;7.88;;
14526;SDS011;7350;51.208;4.238;2023-01-29T14:39:19;8.77;;;7.97;;
14526;SDS011;7350;51.208;4.238;2023-01-29T14:41:53;8.35;;;7.55;;
14526;SDS011;7350;51.208;4.238;2023-01-29T14:53:34;8.00;;;7.30;;
14526;SDS011;7350;51.208;4.238;2023-01-29T14:56:20;8.13;;;7.05;;
14526;SDS011;7350;51.208;4.238;2023-01-29T14:58:54;8.93;;;8.02;;
14526;SDS011;7350;51.208;4.238;2023-01-29T15:01:29;8.35;;;7.55;;
14526;SDS011;7350;51.208;4.238;2023-01-29T15:04:01;7.85;;;7.05;;
14526;SDS011;7350;51.208;4.238;2023-01-29T15:06:31;8.02;;;7.22;;
14526;SDS011;7350;51.208;4.238;2023-01-29T15:09:08;8.35;;;7.40;;
14526;SDS011;7350;51.208;4.238;2023-01-29T15:11:43;8.82;;;7.38;;
14526;SDS011;7350;51.208;4.238;2023-01-29T15:14:23;8.60;;;7.25;;
14526;SDS011;7350;51.208;4.238;2023-01-29T15:17:03;8.68;;;7.82;;
14526;SDS011;7350;51.208;4.238;2023-01-29T15:19:42;7.65;;;6.95;;
14526;SDS011;7350;51.208;4.238;2023-01-29T15:22:12;8.38;;;7.63;;
14526;SDS011;7350;51.208;4.238;2023-01-29T15:24:42;7.95;;;7.20;;
14526;SDS011;7350;51.208;4.238;2023-01-29T15:27:12;8.57;;;7.80;;
14526;SDS011;7350;51.208;4.238;2023-01-29T15:29:41;9.10;;;8.20;;
14526;SDS011;7350;51.208;4.238;2023-01-29T15:32:12;8.82;;;7.93;;
14526;SDS011;7350;51.208;4.238;2023-01-29T15:34:44;8.30;;;7.38;;
14526;SDS011;7350;51.208;4.238;2023-01-29T15:37:23;8.40;;;7.60;;
14526;SDS011;7350;51.208;4.238;2023-01-29T15:39:52;8.55;;;7.75;;
14526;SDS011;7350;51.208;4.238;2023-01-29T15:42:24;7.97;;;7.18;;
14526;SDS011;7350;51.208;4.238;2023-01-29T15:44:52;8.52;;;7.72;;
14526;SDS011;7350;51.208;4.238;2023-01-29T15:47:20;7.95;;;7.15;;
14526;SDS011;7350;51.208;4.238;2023-01-29T15:49:51;7.57;;;6.88;;
14526;SDS011;7350;51.208;4.238;2023-01-29T15:52:19;8.98;;;7.53;;
14526;SDS011;7350;51.208;4.238;2023-01-29T15:54:48;8.70;;;7.80;;
14526;SDS011;7350;51.208;4.238;2023-01-29T15:57:21;8.88;;;7.72;;
14526;SDS011;7350;51.208;4.238;2023-01-29T15:59:50;8.23;;;7.43;;
14526;SDS011;7350;51.208;4.238;2023-01-29T16:02:36;7.50;;;6.80;;